createdAt,value
2023-05-01T00:00:59.359Z,17.13
2023-05-01T00:03:27.404Z,17.23
2023-05-01T00:06:01.250Z,17.27
2023-05-01T00:08:28.976Z,17.24
2023-05-01T00:10:56.545Z,17.21
2023-05-01T00:13:24.848Z,17.24
2023-05-01T00:15:52.336Z,17.17
2023-05-01T00:18:19.799Z,17.11
2023-05-01T00:20:47.203Z,17.27
2023-05-01T00:23:14.596Z,17.35
2023-05-01T00:25:42.448Z,17.60
2023-05-01T00:28:09.814Z,17.63
2023-05-01T00:30:37.665Z,17.60
2023-05-01T00:33:05.119Z,17.67
2023-05-01T00:35:32.590Z,17.67
2023-05-01T00:38:00.001Z,17.64
2023-05-01T00:40:28.015Z,17.75
2023-05-01T00:42:56.650Z,17.65
2023-05-01T00:45:25.416Z,17.76
2023-05-01T00:47:55.751Z,17.80
2023-05-01T00:50:23.138Z,17.80
2023-05-01T00:52:50.545Z,17.74
2023-05-01T00:55:17.977Z,17.78
2023-05-01T00:57:47.726Z,17.72
2023-05-01T01:00:16.862Z,17.76
2023-05-01T01:02:44.249Z,17.76
2023-05-01T01:05:11.787Z,17.73
2023-05-01T01:08:08.308Z,17.84
2023-05-01T01:10:46.968Z,17.79
2023-05-01T01:13:20.235Z,17.79
2023-05-01T01:16:29.452Z,17.78
2023-05-01T01:19:06.684Z,17.77
2023-05-01T01:21:42.857Z,17.72
2023-05-01T01:24:42.593Z,17.83
2023-05-01T01:27:36.141Z,17.74
2023-05-01T01:30:22.174Z,17.67
2023-05-01T01:33:25.002Z,17.65
2023-05-01T01:36:00.269Z,17.71
2023-05-01T01:38:40.405Z,17.62
2023-05-01T01:41:17.652Z,17.63
2023-05-01T01:43:53.196Z,17.61
2023-05-01T01:46:24.163Z,17.60
2023-05-01T01:48:54.848Z,17.59
2023-05-01T01:51:26.847Z,17.52
2023-05-01T01:53:56.173Z,17.43
2023-05-01T01:56:27.911Z,17.34
2023-05-01T01:58:56.980Z,17.42
2023-05-01T02:01:25.424Z,17.27
2023-05-01T02:03:55.443Z,17.35
2023-05-01T02:06:24.795Z,17.34
2023-05-01T02:08:53.650Z,17.29
2023-05-01T02:11:22.149Z,17.28
2023-05-01T02:13:54.057Z,17.25
2023-05-01T02:16:25.346Z,17.33
2023-05-01T02:18:55.597Z,17.31
2023-05-01T02:21:24.112Z,17.20
2023-05-01T02:23:52.099Z,17.13
2023-05-01T02:26:24.888Z,17.18
2023-05-01T02:28:52.302Z,17.23
2023-05-01T02:31:20.556Z,17.20
2023-05-01T02:33:49.499Z,17.16
2023-05-01T02:36:17.267Z,17.19
2023-05-01T02:38:47.175Z,17.07
2023-05-01T02:41:15.773Z,17.15
2023-05-01T02:43:46.685Z,17.03
2023-05-01T02:46:16.544Z,16.95
2023-05-01T02:48:44.977Z,17.04
2023-05-01T02:51:13.775Z,16.97
2023-05-01T02:53:41.931Z,17.01
2023-05-01T02:56:19.008Z,16.98
2023-05-01T02:58:49.399Z,16.90
2023-05-01T03:01:16.943Z,16.94
2023-05-01T03:03:45.129Z,17.02
2023-05-01T03:06:14.365Z,16.80
2023-05-01T03:08:42.122Z,16.78
2023-05-01T03:11:09.600Z,16.80
2023-05-01T03:13:37.112Z,16.89
2023-05-01T03:16:04.826Z,16.94
2023-05-01T03:18:32.251Z,16.99
2023-05-01T03:20:59.686Z,16.96
2023-05-01T03:23:28.612Z,16.91
2023-05-01T03:25:56.023Z,16.77
2023-05-01T03:28:23.916Z,16.76
2023-05-01T03:30:53.300Z,16.71
2023-05-01T03:33:21.112Z,16.77
2023-05-01T03:35:48.728Z,16.67
2023-05-01T03:38:17.069Z,16.79
2023-05-01T03:41:05.163Z,16.69
2023-05-01T03:43:51.105Z,16.69
2023-05-01T03:46:30.398Z,16.72
2023-05-01T03:48:58.470Z,16.47
2023-05-01T03:51:27.370Z,16.55
2023-05-01T03:53:59.019Z,16.56
2023-05-01T03:56:35.579Z,16.56
2023-05-01T03:59:04.070Z,16.61
2023-05-01T04:01:33.693Z,16.62
2023-05-01T04:04:02.383Z,16.56
2023-05-01T04:06:30.100Z,16.57
2023-05-01T04:08:57.517Z,16.61
2023-05-01T04:11:24.905Z,16.60
2023-05-01T04:13:52.448Z,16.58
2023-05-01T04:16:20.633Z,16.65
2023-05-01T04:18:48.236Z,16.66
2023-05-01T04:21:18.995Z,16.62
2023-05-01T04:23:50.959Z,16.57
2023-05-01T04:26:19.291Z,16.61
2023-05-01T04:28:46.876Z,16.64
2023-05-01T04:31:17.427Z,16.65
2023-05-01T04:33:44.878Z,16.58
2023-05-01T04:36:12.958Z,16.57
2023-05-01T04:38:40.375Z,16.70
2023-05-01T04:41:07.968Z,16.58
2023-05-01T04:43:35.316Z,16.55
2023-05-01T04:46:06.281Z,16.46
2023-05-01T04:48:33.775Z,16.54
2023-05-01T04:51:03.594Z,16.54
2023-05-01T04:53:34.083Z,16.49
2023-05-01T04:56:02.909Z,16.49
2023-05-01T04:58:32.147Z,16.41
2023-05-01T05:01:05.094Z,16.42
2023-05-01T05:03:32.689Z,16.36
2023-05-01T05:06:00.431Z,16.51
2023-05-01T05:08:27.846Z,16.45
2023-05-01T05:10:59.094Z,16.54
2023-05-01T05:13:46.944Z,16.56
2023-05-01T05:16:14.841Z,16.66
2023-05-01T05:18:42.690Z,16.55
2023-05-01T05:21:10.778Z,16.69
2023-05-01T05:23:41.855Z,16.54
2023-05-01T05:26:09.293Z,16.64
2023-05-01T05:28:36.661Z,16.65
2023-05-01T05:31:06.979Z,16.74
2023-05-01T05:33:35.115Z,16.69
2023-05-01T05:36:03.140Z,16.80
2023-05-01T05:38:36.049Z,16.70
2023-05-01T05:41:05.141Z,16.66
2023-05-01T05:43:32.837Z,16.75
2023-05-01T05:46:03.099Z,16.80
2023-05-01T05:48:33.354Z,16.81
2023-05-01T05:51:01.119Z,16.56
2023-05-01T05:53:28.829Z,16.62
2023-05-01T05:55:56.270Z,16.65
2023-05-01T05:58:24.683Z,16.62
2023-05-01T06:00:53.277Z,16.70
2023-05-01T06:03:21.098Z,16.68
2023-05-01T06:05:50.807Z,16.80
2023-05-01T06:08:19.187Z,16.75
2023-05-01T06:10:46.684Z,16.66
2023-05-01T06:13:15.066Z,16.68
2023-05-01T06:15:49.074Z,16.65
2023-05-01T06:18:17.095Z,16.52
2023-05-01T06:20:45.779Z,16.56
2023-05-01T06:23:13.877Z,16.62
2023-05-01T06:25:54.065Z,16.63
2023-05-01T06:28:21.536Z,16.72
2023-05-01T06:30:48.937Z,16.63
2023-05-01T06:33:20.308Z,16.86
2023-05-01T06:35:59.633Z,16.91
2023-05-01T06:38:27.337Z,16.85
2023-05-01T06:40:55.066Z,16.83
2023-05-01T06:43:22.453Z,16.94
2023-05-01T06:45:50.088Z,16.99
2023-05-01T06:48:17.469Z,16.97
2023-05-01T06:50:44.899Z,16.79
2023-05-01T06:53:15.000Z,16.79
2023-05-01T06:55:42.329Z,16.95
2023-05-01T06:58:22.726Z,17.01
2023-05-01T07:00:55.003Z,17.15
2023-05-01T07:03:23.185Z,17.12
2023-05-01T07:05:50.700Z,17.27
2023-05-01T07:08:18.120Z,17.06
2023-05-01T07:10:45.592Z,17.29
2023-05-01T07:13:13.008Z,17.37
2023-05-01T07:15:40.294Z,17.44
2023-05-01T07:18:07.704Z,17.59
2023-05-01T07:20:35.103Z,17.57
2023-05-01T07:23:02.924Z,17.61
2023-05-01T07:25:31.267Z,17.67
2023-05-01T07:28:00.802Z,17.71
2023-05-01T07:30:30.425Z,17.57
2023-05-01T07:32:58.057Z,17.64
2023-05-01T07:35:25.555Z,17.91
2023-05-01T07:37:53.015Z,17.79
2023-05-01T07:40:20.687Z,18.03
2023-05-01T07:42:48.068Z,17.93
2023-05-01T07:45:18.407Z,17.94
2023-05-01T07:47:46.161Z,17.79
2023-05-01T07:50:13.566Z,17.70
2023-05-01T07:52:40.948Z,17.70
2023-05-01T07:55:08.922Z,17.66
2023-05-01T07:57:36.407Z,17.69
2023-05-01T08:00:04.234Z,17.57
2023-05-01T08:02:41.350Z,17.66
2023-05-01T08:05:09.568Z,17.86
2023-05-01T08:07:36.927Z,18.10
2023-05-01T08:10:04.805Z,18.12
2023-05-01T08:12:32.343Z,18.30
2023-05-01T08:14:59.648Z,18.34
2023-05-01T08:17:27.112Z,18.28
2023-05-01T08:19:56.712Z,18.48
2023-05-01T08:22:24.445Z,18.51
2023-05-01T08:24:51.888Z,18.82
2023-05-01T08:27:19.499Z,19.29
2023-05-01T08:29:46.985Z,19.17
2023-05-01T08:32:15.449Z,19.24
2023-05-01T08:34:42.765Z,19.04
2023-05-01T08:37:10.171Z,18.87
2023-05-01T08:39:37.923Z,18.79
2023-05-01T08:42:05.502Z,19.04
2023-05-01T08:44:37.637Z,19.02
2023-05-01T08:47:08.666Z,19.09
2023-05-01T08:49:37.754Z,19.19
2023-05-01T08:52:06.448Z,19.17
2023-05-01T08:54:35.017Z,19.33
2023-05-01T08:57:04.558Z,19.52
2023-05-01T08:59:34.490Z,19.67
2023-05-01T09:02:05.756Z,19.47
2023-05-01T09:04:35.880Z,19.56
2023-05-01T09:07:04.952Z,19.70
2023-05-01T09:09:33.622Z,20.13
2023-05-01T09:12:16.166Z,20.30
2023-05-01T09:14:43.545Z,20.42
2023-05-01T09:17:12.319Z,20.13
2023-05-01T09:19:41.017Z,20.46
2023-05-01T09:22:10.030Z,19.76
2023-05-01T09:24:39.677Z,19.82
2023-05-01T09:27:07.778Z,19.73
2023-05-01T09:29:39.408Z,19.67
2023-05-01T09:32:13.510Z,20.05
2023-05-01T09:34:41.057Z,20.49
2023-05-01T09:37:10.876Z,20.33
2023-05-01T09:39:38.284Z,20.37
2023-05-01T09:42:05.717Z,20.65
2023-05-01T09:44:42.231Z,20.49
2023-05-01T09:47:10.186Z,20.17
2023-05-01T09:49:50.636Z,19.91
2023-05-01T09:52:18.132Z,20.11
2023-05-01T09:54:45.620Z,20.16
2023-05-01T09:57:13.701Z,19.96
2023-05-01T09:59:41.067Z,19.48
2023-05-01T10:02:28.353Z,19.71
2023-05-01T10:05:03.650Z,19.76
2023-05-01T10:07:31.144Z,19.78
2023-05-01T10:10:00.045Z,19.87
2023-05-01T10:12:30.455Z,19.96
2023-05-01T10:14:58.285Z,19.99
2023-05-01T10:17:25.745Z,19.87
2023-05-01T10:19:53.309Z,19.99
2023-05-01T10:22:20.756Z,20.08
2023-05-01T10:24:48.295Z,20.15
2023-05-01T10:27:17.108Z,20.07
2023-05-01T10:29:47.917Z,20.17
2023-05-01T10:32:15.328Z,19.71
2023-05-01T10:34:48.409Z,19.92
2023-05-01T10:37:31.353Z,19.86
2023-05-01T10:40:01.062Z,19.85
2023-05-01T10:42:28.987Z,19.81
2023-05-01T10:45:27.961Z,19.91
2023-05-01T10:47:55.286Z,20.01
2023-05-01T10:50:22.847Z,20.16
2023-05-01T10:53:12.498Z,19.98
2023-05-01T10:55:45.228Z,19.66
2023-05-01T10:58:14.280Z,19.62
2023-05-01T11:00:44.493Z,19.84
2023-05-01T11:03:21.191Z,19.68
2023-05-01T11:06:01.469Z,19.83
2023-05-01T11:08:33.451Z,19.99
2023-05-01T11:11:27.033Z,20.12
2023-05-01T11:14:08.646Z,20.08
2023-05-01T11:16:39.467Z,20.14
2023-05-01T11:19:09.710Z,20.18
2023-05-01T11:21:39.021Z,20.26
2023-05-01T11:24:06.860Z,20.05
2023-05-01T11:26:39.743Z,20.07
2023-05-01T11:29:08.183Z,20.07
2023-05-01T11:31:36.000Z,19.92
2023-05-01T11:34:03.727Z,19.94
2023-05-01T11:36:48.638Z,20.10
2023-05-01T11:39:19.450Z,20.09
2023-05-01T11:41:47.753Z,20.04
2023-05-01T11:44:16.761Z,20.03
2023-05-01T11:46:44.646Z,19.94
2023-05-01T11:49:12.295Z,19.91
2023-05-01T11:51:40.064Z,19.88
2023-05-01T11:54:09.591Z,19.92
2023-05-01T11:56:37.812Z,19.98
2023-05-01T11:59:17.348Z,20.01
2023-05-01T12:01:46.690Z,19.93
2023-05-01T12:04:24.313Z,19.88
2023-05-01T12:06:51.987Z,19.51
2023-05-01T12:09:21.486Z,19.61
2023-05-01T12:11:52.569Z,19.47
2023-05-01T12:14:22.120Z,19.39
2023-05-01T12:16:49.829Z,19.42
2023-05-01T12:19:17.970Z,19.53
2023-05-01T12:21:45.745Z,19.61
2023-05-01T12:24:17.886Z,19.52
2023-05-01T12:26:46.462Z,19.47
2023-05-01T12:29:14.006Z,19.42
2023-05-01T12:31:49.062Z,19.47
2023-05-01T12:34:16.591Z,19.37
2023-05-01T12:36:53.198Z,19.52
2023-05-01T12:39:23.475Z,19.46
2023-05-01T12:41:51.535Z,19.49
2023-05-01T12:44:23.671Z,19.59
2023-05-01T12:47:01.145Z,19.60
2023-05-01T12:49:29.819Z,19.64
2023-05-01T12:51:59.473Z,19.77
2023-05-01T12:54:34.241Z,19.79
2023-05-01T12:57:14.630Z,19.69
2023-05-01T12:59:43.828Z,19.69
2023-05-01T13:02:16.067Z,19.81
2023-05-01T13:04:44.607Z,19.94
2023-05-01T13:07:16.641Z,20.07
2023-05-01T13:10:13.069Z,20.07
2023-05-01T13:12:44.661Z,20.01
2023-05-01T13:15:22.207Z,19.98
2023-05-01T13:17:49.853Z,19.81
2023-05-01T13:20:26.695Z,19.81
2023-05-01T13:22:55.081Z,19.67
2023-05-01T13:25:23.399Z,19.64
2023-05-01T13:27:53.876Z,19.80
2023-05-01T13:30:32.227Z,19.72
2023-05-01T13:33:00.544Z,19.73
2023-05-01T13:35:28.129Z,19.62
2023-05-01T13:37:55.626Z,19.63
2023-05-01T13:40:26.071Z,19.54
2023-05-01T13:42:55.260Z,19.57
2023-05-01T13:45:22.937Z,19.66
2023-05-01T13:47:51.958Z,19.78
2023-05-01T13:50:19.737Z,19.86
2023-05-01T13:52:49.526Z,19.91
2023-05-01T13:55:17.881Z,19.56
2023-05-01T13:57:45.416Z,19.64
2023-05-01T14:00:19.844Z,19.57
2023-05-01T14:02:49.114Z,19.25
2023-05-01T14:05:28.251Z,19.45
2023-05-01T14:07:58.345Z,19.42
2023-05-01T14:10:28.231Z,19.06
2023-05-01T14:12:57.948Z,18.98
2023-05-01T14:15:25.516Z,18.83
2023-05-01T14:17:56.078Z,18.94
2023-05-01T14:20:25.683Z,19.00
2023-05-01T14:22:53.516Z,18.91
2023-05-01T14:25:29.909Z,18.74
2023-05-01T14:27:59.047Z,18.82
2023-05-01T14:30:39.400Z,18.76
2023-05-01T14:33:12.750Z,18.85
2023-05-01T14:35:48.624Z,18.62
2023-05-01T14:38:22.644Z,18.58
2023-05-01T14:40:50.088Z,18.66
2023-05-01T14:43:19.163Z,18.46
2023-05-01T14:45:46.778Z,18.49
2023-05-01T14:48:23.259Z,18.41
2023-05-01T14:50:51.148Z,18.35
2023-05-01T14:53:18.786Z,18.45
2023-05-01T14:55:50.380Z,18.49
2023-05-01T14:58:23.979Z,18.43
2023-05-01T15:00:51.337Z,18.50
2023-05-01T15:03:18.816Z,18.64
2023-05-01T15:05:46.548Z,18.54
2023-05-01T15:08:13.958Z,18.62
2023-05-01T15:10:41.971Z,18.62
2023-05-01T15:13:09.383Z,18.51
2023-05-01T15:15:36.692Z,18.59
2023-05-01T15:18:04.206Z,18.61
2023-05-01T15:20:31.780Z,18.72
2023-05-01T15:22:59.161Z,18.69
2023-05-01T15:25:26.647Z,18.59
2023-05-01T15:27:55.229Z,18.50
2023-05-01T15:30:22.891Z,18.56
2023-05-01T15:32:50.534Z,18.49
2023-05-01T15:35:18.218Z,18.47
2023-05-01T15:37:48.532Z,18.54
2023-05-01T15:40:16.002Z,18.54
2023-05-01T15:42:43.578Z,18.45
2023-05-01T15:45:11.350Z,18.31
2023-05-01T15:47:38.778Z,18.23
2023-05-01T15:50:10.912Z,18.09
2023-05-01T15:52:38.729Z,18.13
2023-05-01T15:55:06.686Z,18.21
2023-05-01T15:57:34.587Z,18.15
2023-05-01T16:00:02.153Z,18.05
2023-05-01T16:02:32.738Z,18.04
2023-05-01T16:05:03.547Z,17.94
2023-05-01T16:07:33.918Z,17.95
2023-05-01T16:10:01.727Z,18.04
2023-05-01T16:12:30.276Z,17.83
2023-05-01T16:14:58.176Z,17.82
2023-05-01T16:17:28.854Z,17.86
2023-05-01T16:19:56.638Z,17.95
2023-05-01T16:22:25.040Z,17.88
2023-05-01T16:24:52.424Z,17.93
2023-05-01T16:27:19.824Z,18.02
2023-05-01T16:29:47.278Z,18.06
2023-05-01T16:32:17.031Z,17.93
2023-05-01T16:34:44.693Z,17.84
2023-05-01T16:37:15.122Z,17.78
2023-05-01T16:39:42.662Z,17.78
2023-05-01T16:42:12.585Z,17.56
2023-05-01T16:44:40.467Z,17.64
2023-05-01T16:47:11.441Z,17.54
2023-05-01T16:49:41.964Z,17.62
2023-05-01T16:52:15.978Z,17.63
2023-05-01T16:54:43.338Z,17.70
2023-05-01T16:57:10.814Z,17.59
2023-05-01T16:59:38.339Z,17.53
2023-05-01T17:02:06.864Z,17.51
2023-05-01T17:04:34.418Z,17.50
2023-05-01T17:07:01.772Z,17.47
2023-05-01T17:09:29.187Z,17.54
2023-05-01T17:11:57.571Z,17.45
2023-05-01T17:14:25.237Z,17.30
2023-05-01T17:16:54.255Z,17.25
2023-05-01T17:19:21.598Z,17.45
2023-05-01T17:21:48.899Z,17.32
2023-05-01T17:24:17.565Z,17.09
2023-05-01T17:26:44.950Z,17.11
2023-05-01T17:29:12.359Z,17.07
2023-05-01T17:31:39.724Z,17.09
2023-05-01T17:34:07.247Z,17.16
2023-05-01T17:36:34.719Z,17.02
2023-05-01T17:39:02.315Z,16.97
2023-05-01T17:41:30.046Z,16.94
2023-05-01T17:44:00.825Z,16.86
2023-05-01T17:46:28.216Z,16.72
2023-05-01T17:48:55.757Z,16.80
2023-05-01T17:51:25.695Z,16.71
2023-05-01T17:53:53.296Z,16.64
2023-05-01T17:56:24.329Z,16.55
2023-05-01T17:58:51.694Z,16.34
2023-05-01T18:01:19.555Z,16.46
2023-05-01T18:03:49.142Z,16.27
2023-05-01T18:06:17.211Z,16.18
2023-05-01T18:08:44.664Z,16.12
2023-05-01T18:11:11.968Z,16.11
2023-05-01T18:13:40.049Z,16.08
2023-05-01T18:16:07.509Z,16.08
2023-05-01T18:18:37.118Z,16.00
2023-05-01T18:21:04.478Z,16.25
2023-05-01T18:23:31.899Z,16.13
2023-05-01T18:25:59.812Z,15.88
2023-05-01T18:28:27.195Z,15.81
2023-05-01T18:30:54.803Z,15.90
2023-05-01T18:33:22.627Z,15.79
2023-05-01T18:35:52.860Z,15.67
2023-05-01T18:38:20.366Z,15.65
2023-05-01T18:40:48.073Z,15.74
2023-05-01T18:43:18.419Z,15.67
2023-05-01T18:45:46.005Z,15.59
2023-05-01T18:48:13.425Z,15.50
2023-05-01T18:50:42.530Z,15.43
2023-05-01T18:53:09.926Z,15.45
2023-05-01T18:55:37.273Z,15.42
2023-05-01T18:58:05.796Z,15.27
2023-05-01T19:00:33.140Z,15.38
2023-05-01T19:03:00.827Z,15.24
2023-05-01T19:05:28.561Z,15.17
2023-05-01T19:08:00.657Z,15.18
2023-05-01T19:10:27.900Z,15.20
2023-05-01T19:12:57.815Z,15.16
2023-05-01T19:15:25.200Z,15.10
2023-05-01T19:17:52.693Z,15.22
2023-05-01T19:20:22.895Z,15.11
2023-05-01T19:22:50.402Z,14.65
2023-05-01T19:25:21.417Z,14.64
2023-05-01T19:27:50.919Z,14.54
2023-05-01T19:30:18.380Z,14.46
2023-05-01T19:32:46.701Z,14.52
2023-05-01T19:35:14.475Z,14.38
2023-05-01T19:37:41.808Z,14.26
2023-05-01T19:40:10.024Z,14.28
2023-05-01T19:42:37.471Z,14.25
2023-05-01T19:45:05.358Z,14.24
2023-05-01T19:47:32.793Z,14.38
2023-05-01T19:50:00.882Z,14.37
2023-05-01T19:52:28.475Z,14.11
2023-05-01T19:54:55.966Z,14.04
2023-05-01T19:57:24.029Z,14.10
2023-05-01T19:59:53.644Z,14.20
2023-05-01T20:02:22.117Z,14.15
2023-05-01T20:04:49.670Z,14.12
2023-05-01T20:07:18.526Z,14.09
2023-05-01T20:09:46.046Z,13.97
2023-05-01T20:12:13.547Z,14.02
2023-05-01T20:14:40.961Z,14.12
2023-05-01T20:17:09.389Z,14.00
2023-05-01T20:19:39.611Z,14.06
2023-05-01T20:22:07.371Z,13.88
2023-05-01T20:24:34.754Z,13.83
2023-05-01T20:27:04.337Z,13.86
2023-05-01T20:29:32.374Z,13.91
2023-05-01T20:32:00.400Z,13.94
2023-05-01T20:34:27.914Z,13.70
2023-05-01T20:36:55.224Z,13.73
2023-05-01T20:39:22.589Z,13.73
2023-05-01T20:41:50.118Z,13.78
2023-05-01T20:44:17.504Z,13.72
2023-05-01T20:46:45.009Z,13.66
2023-05-01T20:49:15.636Z,13.82
2023-05-01T20:51:43.559Z,13.92
2023-05-01T20:54:11.100Z,13.94
2023-05-01T20:56:38.545Z,13.77
2023-05-01T20:59:08.692Z,13.76
2023-05-01T21:01:36.116Z,13.81
2023-05-01T21:04:04.239Z,13.94
2023-05-01T21:06:32.849Z,13.91
2023-05-01T21:09:01.164Z,13.93
2023-05-01T21:11:28.595Z,13.89
2023-05-01T21:13:57.619Z,13.86
2023-05-01T21:16:27.690Z,13.87
2023-05-01T21:18:55.257Z,13.90
2023-05-01T21:21:27.005Z,13.79
2023-05-01T21:23:54.607Z,13.79
2023-05-01T21:26:22.224Z,13.80
2023-05-01T21:28:49.843Z,13.73
2023-05-01T21:31:17.220Z,13.84
2023-05-01T21:33:47.819Z,13.83
2023-05-01T21:36:18.227Z,13.87
2023-05-01T21:38:46.140Z,13.84
2023-05-01T21:41:15.391Z,13.96
2023-05-01T21:43:43.438Z,13.94
2023-05-01T21:46:15.744Z,13.93
2023-05-01T21:48:43.490Z,13.93
2023-05-01T21:51:10.922Z,13.98
2023-05-01T21:53:42.335Z,14.07
2023-05-01T21:56:11.094Z,14.17
2023-05-01T21:58:38.761Z,14.21
2023-05-01T22:01:06.455Z,14.23
2023-05-01T22:03:34.415Z,14.22
2023-05-01T22:06:03.885Z,14.22
2023-05-01T22:08:31.384Z,14.26
2023-05-01T22:10:58.686Z,14.21
2023-05-01T22:13:33.117Z,14.14
2023-05-01T22:16:00.662Z,14.14
2023-05-01T22:18:29.168Z,14.10
2023-05-01T22:20:56.675Z,14.21
2023-05-01T22:23:24.073Z,14.15
2023-05-01T22:25:51.672Z,14.13
2023-05-01T22:28:20.856Z,14.22
2023-05-01T22:30:48.424Z,14.15
2023-05-01T22:33:15.977Z,14.10
2023-05-01T22:35:43.400Z,13.99
2023-05-01T22:38:13.433Z,13.94
2023-05-01T22:40:40.804Z,14.00
2023-05-01T22:43:08.817Z,14.05
2023-05-01T22:45:36.484Z,14.10
2023-05-01T22:48:04.245Z,14.07
2023-05-01T22:50:31.659Z,14.11
2023-05-01T22:52:59.081Z,13.96
2023-05-01T22:55:26.420Z,13.98
2023-05-01T22:57:53.857Z,13.99
2023-05-01T23:00:22.254Z,13.85
2023-05-01T23:02:51.022Z,13.87
2023-05-01T23:05:18.493Z,14.05
2023-05-01T23:07:45.919Z,14.15
2023-05-01T23:10:15.058Z,14.27
2023-05-01T23:12:44.323Z,13.95
2023-05-01T23:15:16.968Z,13.87
2023-05-01T23:17:44.618Z,13.94
2023-05-01T23:20:18.748Z,13.67
2023-05-01T23:22:47.353Z,13.59
2023-05-01T23:25:21.303Z,13.58
2023-05-01T23:27:54.080Z,13.59
2023-05-01T23:30:22.040Z,13.55
2023-05-01T23:32:49.780Z,13.62
2023-05-01T23:35:23.732Z,13.56
2023-05-01T23:37:52.929Z,13.59
2023-05-01T23:40:20.435Z,13.56
2023-05-01T23:42:48.590Z,13.61
2023-05-01T23:45:16.992Z,13.60
2023-05-01T23:47:44.447Z,13.70
2023-05-01T23:50:11.945Z,13.72
2023-05-01T23:52:39.408Z,13.74
2023-05-01T23:55:06.945Z,13.66
2023-05-01T23:57:34.337Z,13.46
